Time;durP1;ratioP1;P1;durP2;ratioP2;P2;SDS_P1;SDS_P2;PMS_P1;PMS_P2;Temp;Humidity;BMP_temperature;BMP_pressure;BME280_temperature;BME280_humidity;BME280_pressure;Samples;Min_cycle;Max_cycle;Signal;HPM_P1;HPM_P2
2022/12/31 00:01:20;;;;;;;1.00;0.90;;;13.60;99.90;;;;;;5071899;28;20463;-74
2022/12/31 00:03:45;;;;;;;0.87;0.70;;;13.60;99.90;;;;;;5073168;28;20410;-74
2022/12/31 00:06:19;;;;;;;1.90;0.97;;;13.60;99.90;;;;;;5072777;28;20451;-73
2022/12/31 00:08:44;;;;;;;1.07;0.60;;;13.70;99.90;;;;;;5071832;28;20189;-74
2022/12/31 00:11:11;;;;;;;2.40;1.00;;;13.70;99.90;;;;;;5073419;28;20404;-74
2022/12/31 00:13:37;;;;;;;1.40;0.87;;;13.70;99.90;;;;;;5072084;28;20796;-74
2022/12/31 00:16:07;;;;;;;0.87;0.63;;;13.70;99.90;;;;;;5071927;28;20466;-74
2022/12/31 00:18:33;;;;;;;0.80;0.60;;;13.70;99.90;;;;;;5071702;28;20410;-74
2022/12/31 00:21:00;;;;;;;0.80;0.80;;;13.50;99.90;;;;;;5068194;28;20448;-74
2022/12/31 00:23:26;;;;;;;0.93;0.70;;;13.60;99.90;;;;;;5071931;28;20177;-74
2022/12/31 00:25:51;;;;;;;1.20;0.77;;;13.60;99.90;;;;;;5072666;28;20440;-74
2022/12/31 00:28:17;;;;;;;1.20;0.87;;;13.70;99.90;;;;;;5072792;28;20254;-74
2022/12/31 00:30:42;;;;;;;0.83;0.70;;;13.70;99.90;;;;;;5073037;28;20185;-74
2022/12/31 00:33:08;;;;;;;1.63;0.70;;;13.70;99.90;;;;;;5073652;28;20174;-74
2022/12/31 00:35:35;;;;;;;1.30;0.77;;;13.80;99.90;;;;;;5073643;28;20171;-73
2022/12/31 00:38:00;;;;;;;0.90;0.70;;;13.70;99.90;;;;;;5073520;28;20640;-73
2022/12/31 00:40:28;;;;;;;0.97;0.73;;;13.80;99.90;;;;;;5073349;28;20449;-73
2022/12/31 00:42:53;;;;;;;1.17;1.00;;;13.80;99.90;;;;;;5072891;28;20241;-74
2022/12/31 00:45:19;;;;;;;2.90;1.10;;;13.90;99.90;;;;;;5073246;28;20473;-72
2022/12/31 00:47:45;;;;;;;1.27;0.77;;;13.80;99.90;;;;;;5072953;28;20168;-73
2022/12/31 00:50:10;;;;;;;0.80;0.70;;;13.80;99.90;;;;;;5072736;28;20270;-73
2022/12/31 00:52:36;;;;;;;0.90;0.60;;;13.80;99.90;;;;;;5072835;28;20530;-73
2022/12/31 00:55:01;;;;;;;3.67;0.80;;;13.80;99.90;;;;;;5072734;28;20517;-73
2022/12/31 00:57:27;;;;;;;2.00;0.70;;;13.80;99.90;;;;;;5071637;28;20180;-75
2022/12/31 00:59:53;;;;;;;1.10;0.80;;;13.90;99.90;;;;;;5072383;28;20240;-73
2022/12/31 01:02:18;;;;;;;0.97;0.70;;;13.80;99.90;;;;;;5072715;28;20172;-72
2022/12/31 01:04:44;;;;;;;0.90;0.80;;;13.80;99.90;;;;;;5072292;28;20248;-73
2022/12/31 01:07:09;;;;;;;2.33;0.90;;;13.80;99.90;;;;;;5072523;28;20193;-73
2022/12/31 01:09:35;;;;;;;1.63;0.80;;;13.90;99.90;;;;;;5072643;28;20625;-75
2022/12/31 01:12:00;;;;;;;0.97;0.87;;;13.90;99.90;;;;;;5072184;28;20181;-73
2022/12/31 01:14:26;;;;;;;1.00;0.70;;;13.90;99.90;;;;;;5071853;28;20169;-73
2022/12/31 01:16:52;;;;;;;0.80;0.70;;;13.90;99.90;;;;;;5073487;28;20169;-73
2022/12/31 01:19:28;;;;;;;1.33;0.87;;;14.00;99.90;;;;;;5072476;28;20198;-73
2022/12/31 01:21:55;;;;;;;0.80;0.60;;;14.00;99.90;;;;;;5072399;28;20935;-72
2022/12/31 01:24:21;;;;;;;1.13;1.03;;;14.10;99.90;;;;;;5072953;28;20429;-72
2022/12/31 01:26:47;;;;;;;2.23;1.10;;;14.20;99.90;;;;;;5072616;28;20447;-72
2022/12/31 01:29:13;;;;;;;1.37;0.60;;;14.20;99.90;;;;;;5071926;28;20488;-73
2022/12/31 01:31:39;;;;;;;1.70;0.87;;;14.20;99.90;;;;;;5072670;28;20396;-72
2022/12/31 01:34:06;;;;;;;1.90;0.77;;;14.20;99.90;;;;;;5072607;28;20265;-72
2022/12/31 01:36:33;;;;;;;0.80;0.77;;;14.30;99.90;;;;;;5073132;28;20668;-73
2022/12/31 01:39:01;;;;;;;0.97;0.70;;;14.30;99.90;;;;;;5075790;28;20487;-71
2022/12/31 01:41:29;;;;;;;1.77;0.80;;;14.30;99.90;;;;;;5075878;28;20412;-73
2022/12/31 01:44:00;;;;;;;1.83;1.20;;;14.20;99.90;;;;;;5075298;28;20414;-73
2022/12/31 01:46:35;;;;;;;0.90;0.77;;;14.20;99.90;;;;;;5074340;28;20812;-73
2022/12/31 01:49:23;;;;;;;1.30;0.73;;;14.20;99.90;;;;;;5074332;28;20644;-73
2022/12/31 01:52:05;;;;;;;0.80;0.70;;;14.20;99.90;;;;;;5075698;28;20400;-73
2022/12/31 01:54:36;;;;;;;0.83;0.70;;;14.30;99.90;;;;;;5074330;28;20450;-73
2022/12/31 01:57:02;;;;;;;1.20;0.73;;;14.30;99.90;;;;;;5076016;28;20391;-74
2022/12/31 01:59:28;;;;;;;1.40;1.10;;;14.20;99.90;;;;;;5073996;28;20474;-74
2022/12/31 02:01:55;;;;;;;1.70;0.90;;;14.30;99.90;;;;;;5075208;28;20450;-73
2022/12/31 02:04:22;;;;;;;1.87;0.93;;;14.30;99.90;;;;;;5075328;28;20431;-74
2022/12/31 02:06:53;;;;;;;2.97;1.10;;;14.30;99.90;;;;;;5075135;28;20530;-73
2022/12/31 02:09:19;;;;;;;1.97;1.00;;;14.40;99.90;;;;;;5074233;28;20454;-74
2022/12/31 02:11:44;;;;;;;1.30;1.17;;;14.40;99.90;;;;;;5075110;28;20889;-74
2022/12/31 02:14:19;;;;;;;1.23;0.80;;;14.40;99.90;;;;;;5074897;28;20397;-74
2022/12/31 02:17:09;;;;;;;1.90;1.10;;;14.40;99.90;;;;;;5075319;28;20150;-74
2022/12/31 02:20:02;;;;;;;1.00;0.80;;;14.40;99.90;;;;;;5074426;28;20805;-72
2022/12/31 02:22:40;;;;;;;1.90;1.03;;;14.40;99.90;;;;;;5055106;28;20821;-73
2022/12/31 02:25:22;;;;;;;1.10;0.80;;;14.40;99.90;;;;;;5054716;28;20388;-74
2022/12/31 02:28:24;;;;;;;0.90;0.80;;;14.40;99.90;;;;;;5066641;28;20488;-73
2022/12/31 02:30:58;;;;;;;1.67;0.80;;;14.50;99.90;;;;;;5074724;28;20412;-74
2022/12/31 02:33:39;;;;;;;1.47;0.90;;;14.30;99.90;;;;;;5074746;28;20434;-73
2022/12/31 02:36:10;;;;;;;1.63;0.97;;;14.40;99.90;;;;;;5073365;28;20426;-73
2022/12/31 02:38:40;;;;;;;0.90;0.70;;;14.50;99.90;;;;;;5073300;28;20415;-73
2022/12/31 02:41:48;;;;;;;1.53;0.70;;;14.50;99.90;;;;;;5074607;28;20418;-73
2022/12/31 02:44:00;;;;;;;0.90;0.70;;;14.60;99.90;;;;;;5073890;28;20416;-73
2022/12/31 02:46:37;;;;;;;5.13;1.00;;;14.70;99.90;;;;;;5074470;28;20986;-74
2022/12/31 02:49:12;;;;;;;2.13;1.23;;;14.70;99.90;;;;;;5072237;28;20218;-74
2022/12/31 02:51:55;;;;;;;1.10;0.70;;;14.70;99.90;;;;;;5073953;28;20894;-73
2022/12/31 02:54:34;;;;;;;2.47;0.90;;;14.80;99.90;;;;;;5074227;28;20475;-72
2022/12/31 02:57:19;;;;;;;1.10;0.67;;;14.70;99.90;;;;;;5074586;28;20496;-74
2022/12/31 03:02:47;;;;;;;1.73;0.90;;;14.50;99.90;;;;;;5074717;28;20406;-73
2022/12/31 03:05:16;;;;;;;2.60;1.13;;;14.50;99.90;;;;;;5072677;28;20528;-73
2022/12/31 03:07:44;;;;;;;1.20;1.10;;;14.60;99.90;;;;;;5074049;28;20399;-73
2022/12/31 03:10:09;;;;;;;1.67;0.80;;;14.70;99.90;;;;;;5072677;28;20443;-73
2022/12/31 03:12:47;;;;;;;1.23;0.70;;;14.70;99.90;;;;;;5072699;28;20901;-73
2022/12/31 03:15:25;;;;;;;1.53;1.13;;;14.70;99.90;;;;;;5072475;28;20158;-73
2022/12/31 03:18:13;;;;;;;1.33;0.93;;;14.70;99.90;;;;;;5074391;28;20473;-73
2022/12/31 03:23:30;;;;;;;1.23;0.87;;;14.60;99.90;;;;;;5075183;28;20385;-73
2022/12/31 03:25:57;;;;;;;1.27;0.80;;;14.80;99.90;;;;;;5074058;28;20457;-73
2022/12/31 03:28:25;;;;;;;1.90;0.83;;;14.80;99.90;;;;;;5073548;28;20404;-73
2022/12/31 03:31:01;;;;;;;1.63;1.20;;;14.70;99.90;;;;;;5072536;28;20457;-74
2022/12/31 03:33:32;;;;;;;1.33;0.90;;;14.70;99.90;;;;;;5073763;28;20386;-73
2022/12/31 03:35:58;;;;;;;1.00;0.90;;;14.70;99.90;;;;;;5073487;28;20410;-73
2022/12/31 03:38:23;;;;;;;1.30;0.80;;;14.70;99.90;;;;;;5072846;28;20419;-73
2022/12/31 03:40:51;;;;;;;0.90;0.70;;;14.90;99.90;;;;;;5073825;28;20199;-74
2022/12/31 03:43:18;;;;;;;1.10;0.70;;;15.00;99.90;;;;;;5073575;28;20181;-71
2022/12/31 03:45:47;;;;;;;1.30;0.80;;;15.00;99.90;;;;;;5073103;28;20597;-73
2022/12/31 03:48:13;;;;;;;1.60;0.77;;;15.10;99.90;;;;;;5073631;28;20401;-72
2022/12/31 03:50:38;;;;;;;1.53;0.80;;;15.20;99.90;;;;;;5073105;28;20437;-73
2022/12/31 03:53:04;;;;;;;0.80;0.60;;;15.20;99.90;;;;;;5073553;28;20172;-72
2022/12/31 03:55:30;;;;;;;0.90;0.73;;;15.30;99.90;;;;;;5071967;28;20212;-73
2022/12/31 03:57:55;;;;;;;1.30;0.90;;;15.30;99.90;;;;;;5072998;28;20256;-74
2022/12/31 04:00:21;;;;;;;1.70;0.80;;;15.30;99.90;;;;;;5072201;28;20229;-73
2022/12/31 04:02:48;;;;;;;1.07;0.70;;;15.30;99.90;;;;;;5073125;28;20609;-73
2022/12/31 04:05:15;;;;;;;2.10;1.00;;;15.40;99.90;;;;;;5071898;28;20440;-73
2022/12/31 04:07:40;;;;;;;0.80;0.70;;;15.50;99.90;;;;;;5073069;28;20404;-73
2022/12/31 04:10:09;;;;;;;1.97;1.07;;;15.60;99.90;;;;;;5073818;28;20430;-74
2022/12/31 04:12:35;;;;;;;1.53;0.87;;;15.60;99.90;;;;;;5073764;28;20176;-74
2022/12/31 04:15:00;;;;;;;1.10;0.83;;;15.60;99.90;;;;;;5072858;28;20404;-74
2022/12/31 04:17:26;;;;;;;2.07;0.87;;;15.60;99.90;;;;;;5073457;28;20181;-74
2022/12/31 04:19:52;;;;;;;0.90;0.63;;;15.60;99.90;;;;;;5072953;28;20199;-74
2022/12/31 04:22:17;;;;;;;0.90;0.70;;;15.60;99.90;;;;;;5073180;28;20162;-74
2022/12/31 04:24:43;;;;;;;0.80;0.70;;;15.70;99.90;;;;;;5072698;28;20165;-74
2022/12/31 04:27:13;;;;;;;0.97;0.60;;;15.70;99.90;;;;;;5073286;28;20277;-74
2022/12/31 04:29:38;;;;;;;0.80;0.70;;;15.70;99.90;;;;;;5072431;28;20533;-73
2022/12/31 04:32:05;;;;;;;1.67;0.80;;;15.80;99.90;;;;;;5071546;28;20487;-74
2022/12/31 04:34:31;;;;;;;1.90;0.83;;;15.70;99.90;;;;;;5072733;28;20594;-74
2022/12/31 04:36:57;;;;;;;1.00;0.70;;;15.70;99.90;;;;;;5069599;28;20404;-73
2022/12/31 04:39:23;;;;;;;1.13;0.90;;;15.70;99.90;;;;;;5072435;28;20885;-74
2022/12/31 04:41:49;;;;;;;1.40;0.63;;;15.70;99.90;;;;;;5072827;28;20717;-74
2022/12/31 04:44:15;;;;;;;0.97;0.77;;;15.70;99.90;;;;;;5072391;28;20443;-73
2022/12/31 04:46:40;;;;;;;0.93;0.70;;;15.60;99.90;;;;;;5072633;28;20196;-74
2022/12/31 04:49:06;;;;;;;1.40;0.80;;;15.70;99.90;;;;;;5072493;28;20233;-74
2022/12/31 04:51:32;;;;;;;0.90;0.60;;;15.70;99.90;;;;;;5072512;28;20177;-72
2022/12/31 04:53:58;;;;;;;0.97;0.60;;;15.50;99.90;;;;;;5072351;28;20166;-73
2022/12/31 04:56:24;;;;;;;0.80;0.60;;;15.50;99.90;;;;;;5071258;28;20423;-72
2022/12/31 04:58:50;;;;;;;0.90;0.70;;;15.50;99.90;;;;;;5071136;28;20216;-74
2022/12/31 05:01:16;;;;;;;3.10;0.80;;;15.50;99.90;;;;;;5072140;28;20398;-73
2022/12/31 05:03:41;;;;;;;1.27;0.90;;;15.50;99.90;;;;;;5072802;28;20209;-74
2022/12/31 05:06:13;;;;;;;0.90;0.77;;;15.60;99.90;;;;;;5071826;28;20335;-74
2022/12/31 05:08:39;;;;;;;0.93;0.70;;;15.40;99.90;;;;;;5070745;28;20605;-74
2022/12/31 05:11:04;;;;;;;1.07;0.60;;;15.30;99.90;;;;;;5072643;28;20538;-74
2022/12/31 05:13:30;;;;;;;1.80;0.70;;;15.20;99.90;;;;;;5075975;28;20219;-73
2022/12/31 05:15:56;;;;;;;0.70;0.50;;;15.10;99.90;;;;;;5075934;28;20176;-74
2022/12/31 05:18:22;;;;;;;1.10;0.70;;;15.10;99.90;;;;;;5075926;28;20176;-73
2022/12/31 05:20:48;;;;;;;2.43;0.90;;;15.10;99.90;;;;;;5074885;28;20214;-74
2022/12/31 05:23:14;;;;;;;0.80;0.73;;;15.10;99.90;;;;;;5075989;28;20486;-74
2022/12/31 05:25:42;;;;;;;2.10;0.90;;;15.10;99.90;;;;;;5074643;28;20205;-73
2022/12/31 05:28:07;;;;;;;1.47;0.70;;;15.00;99.90;;;;;;5076004;28;20487;-73
2022/12/31 05:30:33;;;;;;;3.13;0.60;;;15.00;99.90;;;;;;5075654;28;20444;-74
2022/12/31 05:32:58;;;;;;;1.37;0.93;;;15.00;99.90;;;;;;5075868;28;20164;-73
2022/12/31 05:35:24;;;;;;;0.90;0.70;;;14.90;99.90;;;;;;5075840;28;20261;-74
2022/12/31 05:37:50;;;;;;;6.30;1.33;;;15.00;99.90;;;;;;5075758;28;20176;-74
2022/12/31 05:40:15;;;;;;;0.83;0.67;;;15.00;99.90;;;;;;5074423;28;20194;-74
2022/12/31 05:42:41;;;;;;;1.20;0.70;;;15.00;99.90;;;;;;5075776;28;20161;-74
2022/12/31 05:45:07;;;;;;;0.90;0.60;;;15.20;99.90;;;;;;5074084;28;20173;-74
2022/12/31 05:47:33;;;;;;;0.77;0.70;;;15.20;99.90;;;;;;5075833;28;20182;-74
2022/12/31 05:49:58;;;;;;;1.20;0.73;;;15.10;99.90;;;;;;5074308;28;20434;-74
2022/12/31 05:52:24;;;;;;;1.30;0.83;;;15.10;99.90;;;;;;5075398;28;20168;-74
2022/12/31 05:54:49;;;;;;;1.17;0.83;;;15.10;99.90;;;;;;5075586;28;20167;-73
2022/12/31 05:57:15;;;;;;;0.80;0.60;;;15.10;99.90;;;;;;5075551;28;20204;-74
2022/12/31 05:59:41;;;;;;;1.20;0.90;;;15.00;99.90;;;;;;5073915;28;20216;-74
2022/12/31 06:02:06;;;;;;;3.67;0.80;;;15.10;99.90;;;;;;5075794;28;20175;-74
2022/12/31 06:04:32;;;;;;;2.43;1.10;;;15.20;99.90;;;;;;5075863;28;20170;-73
2022/12/31 06:06:57;;;;;;;1.13;0.90;;;15.10;99.90;;;;;;5075542;28;20193;-75
2022/12/31 06:09:23;;;;;;;0.80;0.70;;;15.10;99.90;;;;;;5074191;28;20183;-74
2022/12/31 06:11:48;;;;;;;0.70;0.70;;;15.10;99.90;;;;;;5075316;28;20205;-74
2022/12/31 06:14:14;;;;;;;0.97;0.70;;;15.10;99.90;;;;;;5074728;28;20166;-74
2022/12/31 06:16:40;;;;;;;1.67;0.70;;;15.00;99.90;;;;;;5075516;28;20191;-74
2022/12/31 06:19:06;;;;;;;1.60;0.90;;;15.10;99.90;;;;;;5075363;28;20659;-74
2022/12/31 06:21:32;;;;;;;1.00;0.70;;;15.10;99.90;;;;;;5075059;28;20411;-71
2022/12/31 06:23:58;;;;;;;0.90;0.60;;;15.10;99.90;;;;;;5073908;28;20177;-73
2022/12/31 06:26:24;;;;;;;0.80;0.60;;;15.20;99.90;;;;;;5075696;28;20449;-74
2022/12/31 06:28:50;;;;;;;1.73;0.60;;;15.30;99.90;;;;;;5073407;28;20299;-74
2022/12/31 06:31:15;;;;;;;1.00;0.60;;;15.30;99.90;;;;;;5074475;28;20893;-74
2022/12/31 06:33:41;;;;;;;1.73;0.80;;;15.30;99.90;;;;;;5074975;28;20164;-73
2022/12/31 06:36:11;;;;;;;0.70;0.60;;;15.30;99.90;;;;;;5074673;28;20166;-73
2022/12/31 06:38:39;;;;;;;3.00;0.80;;;15.20;99.90;;;;;;5074625;28;20176;-74
2022/12/31 06:41:06;;;;;;;1.47;0.80;;;15.30;99.90;;;;;;5073824;28;20404;-75
2022/12/31 06:43:33;;;;;;;2.70;0.80;;;15.40;99.90;;;;;;5072989;28;20403;-74
2022/12/31 06:46:00;;;;;;;0.90;0.73;;;15.40;99.90;;;;;;5074049;28;20479;-74
2022/12/31 06:48:26;;;;;;;1.30;0.80;;;15.40;99.90;;;;;;5074637;28;20416;-74
2022/12/31 06:50:51;;;;;;;0.90;0.70;;;15.40;99.90;;;;;;5074172;28;20490;-74
2022/12/31 06:53:17;;;;;;;0.83;0.60;;;15.50;99.90;;;;;;5074815;28;20665;-72
2022/12/31 06:55:43;;;;;;;0.90;0.70;;;15.50;99.90;;;;;;5074370;28;20191;-74
2022/12/31 06:58:12;;;;;;;1.13;0.80;;;15.60;99.90;;;;;;5072489;28;20623;-74
2022/12/31 07:00:48;;;;;;;1.23;0.80;;;15.40;99.90;;;;;;5073299;28;20209;-73
2022/12/31 07:03:32;;;;;;;1.20;0.60;;;15.40;99.90;;;;;;5074243;28;20396;-73
2022/12/31 07:06:07;;;;;;;1.47;0.70;;;15.40;99.90;;;;;;5073946;28;20521;-73
2022/12/31 07:08:48;;;;;;;1.60;0.73;;;15.40;99.90;;;;;;5072795;28;20428;-72
2022/12/31 07:11:40;;;;;;;0.97;0.50;;;15.30;99.90;;;;;;5072751;28;20907;-74
2022/12/31 07:14:22;;;;;;;1.10;0.80;;;15.40;99.90;;;;;;5073699;28;20757;-73
2022/12/31 07:16:58;;;;;;;0.80;0.70;;;15.40;99.90;;;;;;5074249;28;20457;-73
2022/12/31 07:19:31;;;;;;;1.30;0.80;;;15.30;99.90;;;;;;5074395;28;20782;-74
2022/12/31 07:21:58;;;;;;;1.40;0.73;;;15.30;99.90;;;;;;5074123;28;20440;-74
2022/12/31 07:24:24;;;;;;;1.00;0.70;;;15.40;99.90;;;;;;5073290;28;20412;-73
2022/12/31 07:27:34;;;;;;;1.37;0.70;;;15.40;99.90;;;;;;5073581;28;20891;-72
2022/12/31 07:30:00;;;;;;;1.27;0.80;;;15.50;99.90;;;;;;5070200;28;20443;-72
2022/12/31 07:33:09;;;;;;;1.10;0.70;;;15.50;99.90;;;;;;5073902;28;20814;-74
2022/12/31 07:35:51;;;;;;;0.80;0.60;;;15.50;99.90;;;;;;5073573;28;20165;-73
2022/12/31 07:39:04;;;;;;;0.80;0.70;;;15.60;99.90;;;;;;5072365;28;20446;-73
2022/12/31 07:41:51;;;;;;;1.00;0.80;;;15.60;99.90;;;;;;5040012;28;20687;-73
2022/12/31 07:44:55;;;;;;;0.77;0.60;;;15.70;99.90;;;;;;5073315;28;20818;-73
2022/12/31 07:47:24;;;;;;;1.57;1.00;;;15.70;99.90;;;;;;5072193;28;20484;-73
2022/12/31 07:49:51;;;;;;;1.23;0.83;;;15.70;99.90;;;;;;5072228;28;20428;-73
2022/12/31 07:52:17;;;;;;;0.97;0.73;;;15.80;99.90;;;;;;5073552;28;20506;-73
2022/12/31 07:54:43;;;;;;;1.00;0.70;;;15.80;99.90;;;;;;5074517;28;20894;-73
2022/12/31 07:57:11;;;;;;;1.20;0.80;;;15.90;99.90;;;;;;5073424;28;20469;-74
2022/12/31 08:00:05;;;;;;;0.80;0.60;;;15.80;99.90;;;;;;5072445;28;20241;-73
2022/12/31 08:02:55;;;;;;;1.30;0.87;;;15.90;99.90;;;;;;5073615;28;20466;-73
2022/12/31 08:05:30;;;;;;;1.00;0.67;;;15.90;99.90;;;;;;5072215;28;20469;-74
2022/12/31 08:08:17;;;;;;;1.10;0.80;;;15.90;99.90;;;;;;5073514;28;20384;-75
2022/12/31 08:11:07;;;;;;;0.97;0.87;;;15.90;99.90;;;;;;5072023;28;20945;-73
2022/12/31 08:13:33;;;;;;;0.90;0.60;;;16.00;99.90;;;;;;5073358;28;20388;-73
2022/12/31 08:16:00;;;;;;;3.73;1.00;;;16.10;99.90;;;;;;5073066;28;20477;-73
2022/12/31 08:18:26;;;;;;;1.00;0.67;;;16.00;99.90;;;;;;5073060;28;20182;-73
2022/12/31 08:21:18;;;;;;;0.97;0.80;;;16.20;99.90;;;;;;5072778;28;20503;-73
2022/12/31 08:23:57;;;;;;;2.03;0.77;;;16.20;99.90;;;;;;5073558;28;20237;-73
2022/12/31 08:27:01;;;;;;;1.23;0.90;;;16.20;99.90;;;;;;5073486;28;20439;-73
2022/12/31 08:29:54;;;;;;;1.10;0.80;;;16.10;99.90;;;;;;5059878;28;20800;-73
2022/12/31 08:32:29;;;;;;;1.40;0.90;;;16.30;99.90;;;;;;5073283;28;20855;-73
2022/12/31 08:35:00;;;;;;;3.33;0.80;;;16.30;99.90;;;;;;5071423;28;20423;-73
2022/12/31 08:37:54;;;;;;;1.30;0.90;;;16.40;99.90;;;;;;5071558;28;20416;-73
2022/12/31 08:40:37;;;;;;;0.90;0.70;;;16.40;99.90;;;;;;5071527;28;20466;-72
2022/12/31 08:43:31;;;;;;;1.10;0.80;;;16.30;99.90;;;;;;5072296;28;20399;-73
2022/12/31 08:45:59;;;;;;;1.43;1.03;;;16.20;99.90;;;;;;5073310;28;20479;-72
2022/12/31 08:48:37;;;;;;;0.80;0.70;;;16.30;99.90;;;;;;5065197;28;20432;-72
2022/12/31 08:51:03;;;;;;;2.17;0.67;;;16.40;99.90;;;;;;5056672;28;20392;-72
2022/12/31 08:53:29;;;;;;;3.00;1.00;;;16.40;99.90;;;;;;5057057;28;20407;-72
2022/12/31 08:56:14;;;;;;;1.10;0.80;;;16.40;99.90;;;;;;5055409;28;20424;-72
2022/12/31 08:59:02;;;;;;;2.80;0.90;;;16.40;99.90;;;;;;5056661;28;20389;-73
2022/12/31 09:01:35;;;;;;;2.00;0.93;;;16.60;99.90;;;;;;5065903;28;20512;-74
2022/12/31 09:04:34;;;;;;;3.90;0.80;;;16.50;99.90;;;;;;5077120;28;20420;-74
2022/12/31 09:07:02;;;;;;;1.13;0.70;;;16.60;99.90;;;;;;5076133;28;20537;-74
2022/12/31 09:09:46;;;;;;;1.10;0.80;;;16.50;99.90;;;;;;5076498;28;20479;-74
2022/12/31 09:12:27;;;;;;;2.30;0.97;;;16.70;99.90;;;;;;5076794;28;20428;-74
2022/12/31 09:15:22;;;;;;;1.40;0.90;;;16.70;99.90;;;;;;5076445;28;20397;-74
2022/12/31 09:17:49;;;;;;;1.30;0.63;;;16.60;99.90;;;;;;5065115;28;20420;-74
2022/12/31 09:20:21;;;;;;;3.90;0.90;;;16.60;99.90;;;;;;5076477;28;20473;-74
2022/12/31 09:22:47;;;;;;;1.30;0.70;;;16.70;99.90;;;;;;5076669;28;20766;-74
2022/12/31 09:25:18;;;;;;;1.80;0.80;;;16.80;99.90;;;;;;5076341;28;20452;-74
2022/12/31 09:28:05;;;;;;;1.73;0.70;;;17.00;99.90;;;;;;5076269;28;20588;-74
2022/12/31 09:30:41;;;;;;;1.47;0.70;;;16.90;99.90;;;;;;5076029;28;20435;-74
2022/12/31 09:33:15;;;;;;;1.20;0.80;;;17.00;99.90;;;;;;5075875;28;20737;-74
2022/12/31 09:35:45;;;;;;;3.10;0.80;;;17.00;99.90;;;;;;5076376;28;20392;-74
2022/12/31 09:38:29;;;;;;;0.90;0.70;;;17.10;99.90;;;;;;5076277;28;20396;-72
2022/12/31 09:41:10;;;;;;;1.00;0.80;;;17.10;99.90;;;;;;5074618;28;20787;-75
2022/12/31 09:43:55;;;;;;;1.10;0.83;;;17.20;99.90;;;;;;5076365;28;20400;-72
2022/12/31 09:46:42;;;;;;;1.20;0.80;;;17.20;99.90;;;;;;5075686;28;20941;-73
2022/12/31 09:49:22;;;;;;;4.03;1.63;;;17.40;99.90;;;;;;5075053;28;20493;-73
2022/12/31 09:52:09;;;;;;;1.23;0.80;;;17.50;99.90;;;;;;5075872;28;20859;-73
2022/12/31 09:55:08;;;;;;;1.10;0.70;;;17.50;99.90;;;;;;5077972;28;20385;-73
2022/12/31 09:57:41;;;;;;;0.90;0.70;;;17.50;99.90;;;;;;5074285;28;20427;-74
2022/12/31 10:00:26;;;;;;;1.17;0.70;;;17.60;99.90;;;;;;5089363;22;20499;-70
2022/12/31 10:03:28;;;;;;;1.50;1.30;;;17.50;99.90;;;;;;5050224;28;20484;-71
2022/12/31 10:06:10;;;;;;;10.33;4.30;;;17.60;99.90;;;;;;5035963;28;20801;-71
2022/12/31 10:09:06;;;;;;;10.27;6.50;;;17.70;99.90;;;;;;5035714;28;20750;-71
2022/12/31 10:11:53;;;;;;;28.27;17.90;;;18.00;99.90;;;;;;5016094;28;20402;-72
2022/12/31 10:15:03;;;;;;;0.80;0.60;;;18.10;99.90;;;;;;5015668;28;20436;-71
2022/12/31 10:17:57;;;;;;;10.47;8.73;;;18.10;99.90;;;;;;4936088;29;20415;-71
2022/12/31 10:21:07;;;;;;;3.30;3.00;;;18.10;99.90;;;;;;5015643;28;20481;-72
2022/12/31 10:24:16;;;;;;;1.47;1.03;;;18.10;99.90;;;;;;5012185;28;20434;-71
2022/12/31 10:26:55;;;;;;;3.50;1.47;;;17.90;99.90;;;;;;5035244;28;20480;-72
2022/12/31 10:29:42;;;;;;;1.37;0.90;;;17.90;99.90;;;;;;5035259;28;20789;-72
2022/12/31 10:32:40;;;;;;;0.97;0.80;;;17.90;99.90;;;;;;5035608;28;20414;-72
2022/12/31 10:35:19;;;;;;;1.57;1.33;;;17.90;99.90;;;;;;5034760;28;20405;-71
2022/12/31 10:38:04;;;;;;;1.93;1.23;;;18.10;99.90;;;;;;5034705;28;20761;-73
2022/12/31 10:41:08;;;;;;;1.83;1.63;;;18.10;99.90;;;;;;5015038;28;20852;-71
2022/12/31 10:43:54;;;;;;;1.30;1.00;;;18.10;99.90;;;;;;5015317;28;20407;-72
2022/12/31 10:46:32;;;;;;;1.07;0.70;;;18.30;99.90;;;;;;5014909;28;20776;-72
2022/12/31 10:49:18;;;;;;;1.63;0.80;;;18.30;99.90;;;;;;5014626;28;20763;-71
2022/12/31 10:52:05;;;;;;;1.43;1.00;;;18.40;99.90;;;;;;5017380;28;20901;-71
2022/12/31 10:54:46;;;;;;;1.90;1.10;;;18.30;99.90;;;;;;5034458;28;20447;-73
2022/12/31 10:57:20;;;;;;;1.53;0.90;;;18.40;99.90;;;;;;5033266;28;20416;-72
2022/12/31 11:00:00;;;;;;;2.43;2.10;;;18.50;99.90;;;;;;5034428;28;20445;-72
2022/12/31 11:02:45;;;;;;;1.20;0.67;;;18.80;99.90;;;;;;5031367;28;20766;-72
2022/12/31 11:06:03;;;;;;;2.50;1.03;;;19.40;99.90;;;;;;5034067;28;20428;-71
2022/12/31 11:08:48;;;;;;;1.67;0.70;;;19.90;99.90;;;;;;4953858;29;20426;-72
2022/12/31 11:11:48;;;;;;;0.90;0.70;;;20.90;99.90;;;;;;4953977;29;20829;-72
2022/12/31 11:14:41;;;;;;;2.13;0.87;;;21.60;99.90;;;;;;5015240;28;20411;-72
2022/12/31 11:17:15;;;;;;;2.20;1.20;;;22.20;99.90;;;;;;5034486;28;20813;-72
2022/12/31 11:20:02;;;;;;;1.53;1.10;;;22.60;99.90;;;;;;5033782;28;20425;-71
2022/12/31 11:22:30;;;;;;;1.93;0.70;;;22.60;99.90;;;;;;5032848;28;20436;-71
2022/12/31 11:25:01;;;;;;;0.97;0.87;;;22.00;99.90;;;;;;5034188;28;20414;-72
2022/12/31 11:27:32;;;;;;;1.10;0.80;;;22.20;99.90;;;;;;5034041;28;20429;-71
2022/12/31 11:30:19;;;;;;;0.87;0.63;;;22.20;99.50;;;;;;5033886;28;20461;-72
2022/12/31 11:33:22;;;;;;;1.63;0.60;;;22.80;99.60;;;;;;5033964;28;20737;-72
2022/12/31 11:35:59;;;;;;;1.23;0.80;;;22.80;99.00;;;;;;5033752;28;20437;-72
2022/12/31 11:38:34;;;;;;;1.43;0.77;;;22.90;99.00;;;;;;5033246;28;20880;-73
2022/12/31 11:41:28;;;;;;;1.70;0.80;;;23.20;98.70;;;;;;5033599;28;20430;-72
2022/12/31 11:44:28;;;;;;;1.00;0.60;;;22.60;98.30;;;;;;5033670;28;20547;-72
2022/12/31 11:47:24;;;;;;;0.90;0.77;;;22.50;99.20;;;;;;5033713;28;20943;-72
2022/12/31 11:50:16;;;;;;;1.37;0.70;;;22.60;98.70;;;;;;5033500;28;20429;-73
2022/12/31 11:53:00;;;;;;;0.83;0.70;;;23.50;98.10;;;;;;5032981;28;20776;-72
2022/12/31 11:55:48;;;;;;;1.83;0.90;;;24.00;96.90;;;;;;5033708;28;20387;-72
2022/12/31 11:58:17;;;;;;;1.90;0.60;;;24.70;95.90;;;;;;5031276;28;20568;-73
2022/12/31 12:00:54;;;;;;;1.67;0.80;;;24.00;96.10;;;;;;5032925;28;20841;-73
2022/12/31 12:03:21;;;;;;;1.53;0.80;;;23.50;97.10;;;;;;5033610;28;20394;-73
2022/12/31 12:05:47;;;;;;;1.40;0.80;;;24.00;96.60;;;;;;5033481;28;20445;-73
2022/12/31 12:08:14;;;;;;;2.00;0.63;;;24.40;95.80;;;;;;5033200;28;20418;-73
2022/12/31 12:10:47;;;;;;;1.33;0.70;;;24.60;96.00;;;;;;5048456;28;20191;-73
2022/12/31 12:13:25;;;;;;;1.20;0.70;;;24.90;95.50;;;;;;5033263;28;20432;-73
2022/12/31 12:15:57;;;;;;;1.03;0.60;;;25.40;94.40;;;;;;5032846;28;20402;-73
2022/12/31 12:18:32;;;;;;;1.10;0.80;;;25.30;93.90;;;;;;5033798;28;20394;-73
2022/12/31 12:21:06;;;;;;;2.03;0.60;;;26.10;92.90;;;;;;5033325;28;20439;-73
2022/12/31 12:23:32;;;;;;;4.40;1.10;;;26.80;91.80;;;;;;5032724;28;20421;-73
2022/12/31 12:25:58;;;;;;;1.37;0.70;;;27.50;90.50;;;;;;5032362;28;20445;-73
2022/12/31 12:28:27;;;;;;;2.70;0.70;;;27.40;90.20;;;;;;5033002;28;20232;-72
2022/12/31 12:31:02;;;;;;;2.77;0.90;;;27.40;89.40;;;;;;5031711;28;20217;-72
2022/12/31 12:33:39;;;;;;;1.60;0.70;;;27.00;90.50;;;;;;5032497;28;20402;-72
2022/12/31 12:36:10;;;;;;;1.43;0.73;;;26.60;90.30;;;;;;5033102;28;20434;-72
2022/12/31 12:38:37;;;;;;;1.23;0.77;;;25.40;91.80;;;;;;5033294;28;20402;-72
2022/12/31 12:41:06;;;;;;;1.10;0.67;;;24.10;93.10;;;;;;5032551;28;20513;-72
2022/12/31 12:43:34;;;;;;;1.53;0.70;;;22.90;94.40;;;;;;5031671;28;20417;-72
2022/12/31 12:46:24;;;;;;;1.03;0.83;;;22.30;95.20;;;;;;5032870;28;20418;-72
2022/12/31 12:48:55;;;;;;;1.43;0.73;;;21.80;95.90;;;;;;5021809;28;20422;-72
2022/12/31 12:51:41;;;;;;;1.83;1.10;;;21.80;96.80;;;;;;5030827;28;20426;-72
2022/12/31 12:54:12;;;;;;;1.30;0.70;;;22.00;97.10;;;;;;5028951;28;20442;-72
2022/12/31 12:56:56;;;;;;;1.00;0.70;;;21.60;97.20;;;;;;5032600;28;20430;-72
2022/12/31 12:59:30;;;;;;;1.93;0.80;;;21.50;97.70;;;;;;5032704;28;20449;-71
2022/12/31 13:02:37;;;;;;;1.63;1.00;;;21.50;97.60;;;;;;5032680;28;20398;-72
2022/12/31 13:05:20;;;;;;;1.30;0.90;;;20.70;97.80;;;;;;5031959;28;20942;-72
2022/12/31 13:08:19;;;;;;;1.07;0.90;;;20.80;98.10;;;;;;5032996;28;20393;-72
2022/12/31 13:11:00;;;;;;;1.00;0.70;;;20.60;98.00;;;;;;5032319;28;20990;-72
2022/12/31 13:14:11;;;;;;;1.27;0.60;;;20.70;98.40;;;;;;5032823;28;20560;-72
2022/12/31 13:16:51;;;;;;;7.27;4.80;;;20.40;98.10;;;;;;5032767;28;20442;-72
2022/12/31 13:19:34;;;;;;;1.80;0.80;;;20.30;98.50;;;;;;5032413;28;20529;-72
2022/12/31 13:22:18;;;;;;;1.53;0.87;;;20.30;99.00;;;;;;5032805;28;20406;-72
2022/12/31 13:25:05;;;;;;;1.30;0.70;;;20.60;98.50;;;;;;5031168;28;20989;-72
2022/12/31 13:27:41;;;;;;;1.70;0.70;;;20.80;98.20;;;;;;5032952;28;20386;-72
2022/12/31 13:30:23;;;;;;;1.50;1.30;;;20.70;98.80;;;;;;5032575;28;20430;-72